Terminal Aerodrome Forecast
Issued by NWS

Home | Current Version | Previous Version | Text Only | Print | Product List | Glossary On
Versions: 1 2 3 4 5 6 7 8 9 10 11 12
552
FTUS46 KSTO 261739
TAFSMF
TAF
KSMF 261739Z 2618/2718 17012KT P6SM SKC
     FM262200 19012G19KT P6SM SKC
     FM270600 16015KT P6SM SKC=

USA.gov is the U.S. government's official web portal to all federal, state and local government web resources and services.